< < Back
Terminal Aerodrome Forecast


Current Version              Previous Versions:   1  2  3  4  5  6  7  8  9  

Terminal Aerodrome Forecast

141
FTUS44 KMOB 251700 RRA
TAFPNS
TAF
KPNS 251754Z 2518/2618 36009KT P6SM VCSH OVC110
     FM260900 33007KT P6SM SKC=



Latest METAR

068
SAUS70 KWBC 260500 RRF
MTRPNS
METAR KPNS 260453Z 33011KT 10SM FEW110 11/02 A3010 RMK AO2 SLP195
T01060017


USA.gov is the U.S. government's official web portal to all federal, state and local government web resources and services.